createdAt,value
2018-11-27T00:00:20.369Z,0.00
2018-11-27T00:01:20.343Z,0.00
2018-11-27T00:02:20.304Z,0.00
2018-11-27T00:03:20.321Z,0.00
2018-11-27T00:04:20.280Z,0.00
2018-11-27T00:05:20.270Z,0.00
2018-11-27T00:06:20.284Z,0.00
2018-11-27T00:07:20.248Z,0.00
2018-11-27T00:08:20.239Z,0.00
2018-11-27T00:09:20.251Z,0.00
2018-11-27T00:10:20.217Z,0.00
2018-11-27T00:11:20.229Z,0.00
2018-11-27T00:12:20.192Z,0.00
2018-11-27T00:13:20.181Z,0.00
2018-11-27T00:14:20.170Z,0.00
2018-11-27T00:15:20.191Z,0.00
2018-11-27T00:16:20.177Z,0.00
2018-11-27T00:17:20.150Z,0.00
2018-11-27T00:18:20.135Z,0.00
2018-11-27T00:19:20.154Z,0.00
2018-11-27T00:20:20.110Z,0.00
2018-11-27T00:21:20.179Z,0.00
2018-11-27T00:22:20.084Z,0.00
2018-11-27T00:23:20.075Z,0.00
2018-11-27T00:24:20.067Z,0.00
2018-11-27T00:25:20.050Z,0.00
2018-11-27T00:26:20.044Z,0.00
2018-11-27T00:27:20.083Z,0.00
2018-11-27T00:28:20.016Z,0.00
2018-11-27T00:29:20.008Z,0.00
2018-11-27T00:30:20.004Z,0.00
2018-11-27T00:31:19.983Z,0.00
2018-11-27T00:32:19.996Z,0.00
2018-11-27T00:33:19.994Z,0.00
2018-11-27T00:34:19.958Z,0.00
2018-11-27T00:35:19.939Z,0.00
2018-11-27T00:36:19.934Z,0.00
2018-11-27T00:37:19.958Z,0.00
2018-11-27T00:38:19.913Z,0.00
2018-11-27T00:39:19.911Z,0.00
2018-11-27T00:40:19.886Z,0.00
2018-11-27T00:41:19.874Z,0.00
2018-11-27T00:42:19.863Z,0.00
2018-11-27T00:43:19.881Z,0.00
2018-11-27T00:44:19.845Z,0.00
2018-11-27T00:45:19.857Z,0.00
2018-11-27T00:46:19.821Z,0.00
2018-11-27T00:47:19.814Z,0.00
2018-11-27T00:48:19.823Z,0.00
2018-11-27T00:49:19.784Z,0.00
2018-11-27T00:50:19.775Z,0.00
2018-11-27T00:51:19.791Z,0.00
2018-11-27T00:52:19.754Z,0.00
2018-11-27T00:53:19.770Z,0.00
2018-11-27T00:54:20.077Z,0.00
2018-11-27T00:55:19.727Z,0.00
2018-11-27T00:56:19.711Z,0.00
2018-11-27T00:57:19.741Z,0.00
2018-11-27T00:58:19.715Z,0.00
2018-11-27T00:59:19.683Z,0.00
2018-11-27T01:00:19.672Z,0.00
2018-11-27T01:01:19.655Z,0.00
2018-11-27T01:02:19.648Z,0.00
2018-11-27T01:03:19.689Z,0.00
2018-11-27T01:04:19.628Z,0.00
2018-11-27T01:05:19.640Z,0.00
2018-11-27T01:06:19.611Z,0.00
2018-11-27T01:07:19.601Z,0.00
2018-11-27T01:08:19.603Z,0.00
2018-11-27T01:09:19.569Z,0.00
2018-11-27T01:10:19.584Z,0.00
2018-11-27T01:11:19.546Z,0.00
2018-11-27T01:12:19.540Z,0.00
2018-11-27T01:13:19.553Z,0.00
2018-11-27T01:14:19.521Z,0.00
2018-11-27T01:15:19.503Z,0.00
2018-11-27T01:16:19.551Z,0.00
2018-11-27T01:17:19.492Z,0.00
2018-11-27T01:18:19.484Z,0.00
2018-11-27T01:19:19.488Z,0.00
2018-11-27T01:20:19.452Z,0.00
2018-11-27T01:21:19.445Z,0.00
2018-11-27T01:22:19.458Z,0.00
2018-11-27T01:23:19.425Z,0.00
2018-11-27T01:24:19.404Z,0.00
2018-11-27T01:25:19.419Z,0.00
2018-11-27T01:26:19.386Z,0.00
2018-11-27T01:27:19.375Z,0.00
2018-11-27T01:28:19.433Z,0.00
2018-11-27T01:29:19.354Z,0.00
2018-11-27T01:30:19.374Z,0.00
2018-11-27T01:31:19.341Z,0.00
2018-11-27T01:32:19.323Z,0.00
2018-11-27T01:33:19.312Z,0.00
2018-11-27T01:34:19.332Z,0.00
2018-11-27T01:35:19.312Z,0.00
2018-11-27T01:36:19.281Z,0.00
2018-11-27T01:37:19.265Z,0.00
2018-11-27T01:38:19.255Z,0.00
2018-11-27T01:39:19.255Z,0.00
2018-11-27T01:40:19.261Z,0.00
2018-11-27T01:41:19.313Z,0.00
2018-11-27T01:42:19.211Z,0.00
2018-11-27T01:43:19.201Z,0.00
2018-11-27T01:44:19.190Z,0.00
2018-11-27T01:45:19.214Z,0.00
2018-11-27T01:46:19.169Z,0.00
2018-11-27T01:47:19.182Z,0.00
2018-11-27T01:48:19.144Z,0.00
2018-11-27T01:49:19.136Z,0.00
2018-11-27T01:50:19.151Z,0.00
2018-11-27T01:51:19.112Z,0.00
2018-11-27T01:52:19.108Z,0.00
2018-11-27T01:53:19.125Z,0.00
2018-11-27T01:54:19.086Z,0.00
2018-11-27T01:55:19.071Z,0.00
2018-11-27T01:56:19.089Z,0.00
2018-11-27T01:57:19.076Z,0.00
2018-11-27T01:58:19.075Z,0.00
2018-11-27T01:59:19.064Z,0.00
2018-11-27T02:00:19.027Z,0.00
2018-11-27T02:01:19.035Z,0.00
2018-11-27T02:02:18.990Z,0.00
2018-11-27T02:03:18.986Z,0.00
2018-11-27T02:04:19.015Z,0.00
2018-11-27T02:05:18.991Z,0.00
2018-11-27T02:06:18.951Z,0.00
2018-11-27T02:07:18.968Z,0.00
2018-11-27T02:08:18.932Z,0.00
2018-11-27T02:09:18.921Z,0.00
2018-11-27T02:10:18.915Z,0.00
2018-11-27T02:11:18.932Z,0.00
2018-11-27T02:12:18.882Z,0.00
2018-11-27T02:13:18.904Z,0.00
2018-11-27T02:14:18.906Z,0.00
2018-11-27T02:15:18.871Z,0.00
2018-11-27T02:16:18.849Z,0.00
2018-11-27T02:17:18.857Z,0.00
2018-11-27T02:18:18.847Z,0.00
2018-11-27T02:19:18.811Z,0.00
2018-11-27T02:20:18.803Z,0.00
2018-11-27T02:21:18.791Z,0.00
2018-11-27T02:22:18.779Z,0.00
2018-11-27T02:23:18.859Z,0.00
2018-11-27T02:24:18.755Z,0.00
2018-11-27T02:25:18.743Z,0.00
2018-11-27T02:26:18.735Z,0.00
2018-11-27T02:27:18.731Z,0.00
2018-11-27T02:28:18.736Z,0.00
2018-11-27T02:29:18.743Z,0.00
2018-11-27T02:30:18.695Z,0.00
2018-11-27T02:31:18.683Z,0.00
2018-11-27T02:32:18.675Z,0.00
2018-11-27T02:33:18.692Z,0.00
2018-11-27T02:34:18.649Z,0.00
2018-11-27T02:35:18.693Z,0.00
2018-11-27T02:36:18.625Z,0.00
2018-11-27T02:37:18.617Z,0.00
2018-11-27T02:38:18.611Z,0.00
2018-11-27T02:39:18.659Z,0.00
2018-11-27T02:40:18.584Z,0.00
2018-11-27T02:41:18.583Z,0.00
2018-11-27T02:42:18.564Z,0.00
2018-11-27T02:43:18.552Z,0.00
2018-11-27T02:44:18.554Z,0.00
2018-11-27T02:45:18.564Z,0.00
2018-11-27T02:46:18.521Z,0.00
2018-11-27T02:47:18.504Z,0.00
2018-11-27T02:48:18.516Z,0.00
2018-11-27T02:49:18.484Z,0.00
2018-11-27T02:50:18.506Z,0.00
2018-11-27T02:51:18.465Z,0.00
2018-11-27T02:52:18.461Z,0.00
2018-11-27T02:53:18.439Z,0.00
2018-11-27T02:54:18.427Z,0.00
2018-11-27T02:55:18.467Z,0.00
2018-11-27T02:56:18.444Z,0.00
2018-11-27T02:57:18.396Z,0.00
2018-11-27T02:58:18.389Z,0.00
2018-11-27T02:59:18.378Z,0.00
2018-11-27T03:00:18.365Z,0.00
2018-11-27T03:01:18.391Z,0.00
2018-11-27T03:02:18.359Z,0.00
2018-11-27T03:03:18.365Z,0.00
2018-11-27T03:04:18.322Z,0.00
2018-11-27T03:05:18.313Z,0.00
2018-11-27T03:06:18.333Z,0.00
2018-11-27T03:07:18.289Z,0.00
2018-11-27T03:08:18.308Z,0.00
2018-11-27T03:09:18.267Z,0.00
2018-11-27T03:10:18.259Z,0.00
2018-11-27T03:11:18.269Z,0.00
2018-11-27T03:12:18.235Z,0.00
2018-11-27T03:13:18.241Z,0.00
2018-11-27T03:14:18.305Z,0.00
2018-11-27T03:15:18.199Z,0.00
2018-11-27T03:16:18.213Z,0.00
2018-11-27T03:17:18.225Z,0.00
2018-11-27T03:18:18.174Z,0.00
2018-11-27T03:19:18.162Z,0.00
2018-11-27T03:20:18.191Z,0.00
2018-11-27T03:21:18.173Z,0.00
2018-11-27T03:22:18.136Z,0.00
2018-11-27T03:23:18.119Z,0.00
2018-11-27T03:24:18.105Z,0.00
2018-11-27T03:25:18.131Z,0.00
2018-11-27T03:26:18.085Z,0.00
2018-11-27T03:27:18.113Z,0.00
2018-11-27T03:28:18.062Z,0.00
2018-11-27T03:29:18.056Z,0.00
2018-11-27T03:30:18.046Z,0.00
2018-11-27T03:31:18.059Z,0.00
2018-11-27T03:32:18.031Z,0.00
2018-11-27T03:33:18.042Z,0.00
2018-11-27T03:34:18.006Z,0.00
2018-11-27T03:35:17.995Z,0.00
2018-11-27T03:36:17.983Z,0.00
2018-11-27T03:37:17.974Z,0.00
2018-11-27T03:38:18.010Z,0.00
2018-11-27T03:39:17.952Z,0.00
2018-11-27T03:40:17.951Z,0.00
2018-11-27T03:41:17.928Z,0.00
2018-11-27T03:42:17.919Z,0.00
2018-11-27T03:43:17.927Z,0.00
2018-11-27T03:44:17.902Z,0.00
2018-11-27T03:45:17.921Z,0.00
2018-11-27T03:46:17.876Z,0.00
2018-11-27T03:47:17.861Z,0.00
2018-11-27T03:48:18.342Z,0.00
2018-11-27T03:49:17.849Z,0.00
2018-11-27T03:50:17.833Z,0.00
2018-11-27T03:51:17.869Z,0.00
2018-11-27T03:52:17.813Z,0.00
2018-11-27T03:53:17.829Z,0.00
2018-11-27T03:54:17.793Z,0.00
2018-11-27T03:55:17.780Z,0.00
2018-11-27T03:56:17.773Z,0.00
2018-11-27T03:57:17.788Z,0.00
2018-11-27T03:58:17.778Z,0.00
2018-11-27T03:59:17.738Z,0.00
2018-11-27T04:00:17.731Z,0.00
2018-11-27T04:01:17.722Z,0.00
2018-11-27T04:02:17.714Z,0.00
2018-11-27T04:03:17.742Z,0.00
2018-11-27T04:04:17.708Z,0.00
2018-11-27T04:05:17.674Z,0.00
2018-11-27T04:06:17.687Z,0.00
2018-11-27T04:07:17.650Z,0.00
2018-11-27T04:08:17.648Z,0.00
2018-11-27T04:09:17.674Z,0.00
2018-11-27T04:10:17.635Z,0.00
2018-11-27T04:11:17.610Z,0.00
2018-11-27T04:12:17.601Z,0.00
2018-11-27T04:13:17.591Z,0.00
2018-11-27T04:14:17.588Z,0.00
2018-11-27T04:15:17.619Z,0.00
2018-11-27T04:16:17.562Z,0.00
2018-11-27T04:17:17.551Z,0.00
2018-11-27T04:18:17.537Z,0.00
2018-11-27T04:19:17.528Z,0.00
2018-11-27T04:20:17.574Z,0.00
2018-11-27T04:21:17.549Z,0.00
2018-11-27T04:22:17.497Z,0.00
2018-11-27T04:23:17.480Z,0.00
2018-11-27T04:24:17.476Z,0.00
2018-11-27T04:25:17.470Z,0.00
2018-11-27T04:26:17.509Z,0.00
2018-11-27T04:27:17.448Z,0.00
2018-11-27T04:28:17.455Z,0.00
2018-11-27T04:29:17.418Z,0.00
2018-11-27T04:30:17.407Z,0.00
2018-11-27T04:31:17.423Z,0.00
2018-11-27T04:32:17.396Z,0.00
2018-11-27T04:33:17.380Z,0.00
2018-11-27T04:34:17.390Z,0.00
2018-11-27T04:35:17.364Z,0.00
2018-11-27T04:36:17.382Z,0.00
2018-11-27T04:37:17.337Z,0.00
2018-11-27T04:38:17.324Z,0.00
2018-11-27T04:39:17.314Z,0.00
2018-11-27T04:40:17.350Z,0.00
2018-11-27T04:41:17.295Z,0.00
2018-11-27T04:42:17.313Z,0.00
2018-11-27T04:43:17.271Z,0.00
2018-11-27T04:44:17.262Z,0.00
2018-11-27T04:45:17.247Z,0.00
2018-11-27T04:46:17.251Z,0.00
2018-11-27T04:47:17.237Z,0.00
2018-11-27T04:48:17.244Z,0.00
2018-11-27T04:49:17.205Z,0.00
2018-11-27T04:50:17.209Z,0.00
2018-11-27T04:51:17.189Z,0.00
2018-11-27T04:52:17.239Z,0.00
2018-11-27T04:53:17.196Z,0.00
2018-11-27T04:54:17.155Z,0.00
2018-11-27T04:55:17.145Z,0.00
2018-11-27T04:56:17.134Z,0.00
2018-11-27T04:57:17.119Z,0.00
2018-11-27T04:58:17.125Z,0.00
2018-11-27T04:59:17.166Z,0.00
2018-11-27T05:00:17.110Z,0.00
2018-11-27T05:01:17.078Z,0.00
2018-11-27T05:02:17.068Z,0.00
2018-11-27T05:03:17.052Z,0.00
2018-11-27T05:04:17.049Z,0.00
2018-11-27T05:05:17.071Z,0.00
2018-11-27T05:06:17.060Z,0.00
2018-11-27T05:07:17.016Z,0.00
2018-11-27T05:08:16.999Z,0.00
2018-11-27T05:09:16.991Z,0.00
2018-11-27T05:10:17.006Z,0.00
2018-11-27T05:11:16.970Z,0.00
2018-11-27T05:12:16.988Z,0.00
2018-11-27T05:13:16.950Z,0.00
2018-11-27T05:14:16.939Z,0.00
2018-11-27T05:15:16.969Z,0.00
2018-11-27T05:16:16.913Z,0.00
2018-11-27T05:17:16.907Z,0.00
2018-11-27T05:18:16.943Z,0.00
2018-11-27T05:19:16.900Z,0.00
2018-11-27T05:20:16.881Z,0.00
2018-11-27T05:21:16.901Z,0.00
2018-11-27T05:22:16.854Z,0.00
2018-11-27T05:23:16.845Z,0.00
2018-11-27T05:24:16.920Z,0.00
2018-11-27T05:25:16.826Z,0.00
2018-11-27T05:26:16.806Z,0.00
2018-11-27T05:27:16.850Z,0.00
2018-11-27T05:28:16.793Z,0.00
2018-11-27T05:29:16.775Z,0.00
2018-11-27T05:30:16.818Z,0.00
2018-11-27T05:31:16.770Z,0.00
2018-11-27T05:32:16.789Z,0.00
2018-11-27T05:33:16.748Z,0.00
2018-11-27T05:34:16.723Z,0.00
2018-11-27T05:35:16.750Z,0.00
2018-11-27T05:36:16.705Z,0.00
2018-11-27T05:37:16.711Z,0.00
2018-11-27T05:38:16.740Z,0.00
2018-11-27T05:39:16.685Z,0.00
2018-11-27T05:40:16.682Z,0.00
2018-11-27T05:41:16.657Z,0.00
2018-11-27T05:42:16.632Z,0.00
2018-11-27T05:43:16.661Z,0.00
2018-11-27T05:44:16.656Z,0.00
2018-11-27T05:45:16.624Z,0.00
2018-11-27T05:46:16.595Z,0.00
2018-11-27T05:47:16.589Z,0.00
2018-11-27T05:48:16.597Z,0.00
2018-11-27T05:49:16.562Z,0.00
2018-11-27T05:50:16.554Z,0.00
2018-11-27T05:51:16.563Z,0.00
2018-11-27T05:52:16.535Z,0.00
2018-11-27T05:53:16.562Z,0.00
2018-11-27T05:54:16.507Z,0.00
2018-11-27T05:55:16.500Z,0.00
2018-11-27T05:56:16.490Z,0.00
2018-11-27T05:57:16.491Z,0.00
2018-11-27T05:58:16.501Z,0.00
2018-11-27T05:59:16.459Z,0.00
2018-11-27T06:00:16.443Z,0.00
2018-11-27T06:01:16.431Z,0.00
2018-11-27T06:02:16.444Z,0.00
2018-11-27T06:03:16.443Z,0.00
2018-11-27T06:04:16.422Z,0.00
2018-11-27T06:05:16.392Z,0.00
2018-11-27T06:06:16.398Z,0.00
2018-11-27T06:07:16.368Z,0.00
2018-11-27T06:08:16.355Z,0.00
2018-11-27T06:09:16.560Z,0.00
2018-11-27T06:10:16.366Z,0.00
2018-11-27T06:11:16.334Z,0.00
2018-11-27T06:12:16.314Z,0.00
2018-11-27T06:13:16.305Z,0.00
2018-11-27T06:14:16.301Z,0.00
2018-11-27T06:15:16.308Z,0.00
2018-11-27T06:16:16.303Z,0.00
2018-11-27T06:17:16.272Z,0.00
2018-11-27T06:18:16.250Z,0.00
2018-11-27T06:19:16.240Z,0.00
2018-11-27T06:20:16.254Z,0.00
2018-11-27T06:21:16.221Z,0.00
2018-11-27T06:22:16.242Z,0.00
2018-11-27T06:23:16.201Z,0.00
2018-11-27T06:24:16.186Z,0.00
2018-11-27T06:25:16.204Z,0.00
2018-11-27T06:26:16.170Z,0.00
2018-11-27T06:27:16.156Z,0.00
2018-11-27T06:28:16.147Z,0.00
2018-11-27T06:29:16.424Z,0.00
2018-11-27T06:30:16.156Z,0.00
2018-11-27T06:31:16.120Z,4.00
2018-11-27T06:32:21.289Z,4.00
2018-11-27T06:33:17.108Z,4.00
2018-11-27T06:34:16.082Z,4.00
2018-11-27T06:35:16.197Z,4.00
2018-11-27T06:36:16.101Z,8.00
2018-11-27T06:37:16.054Z,4.00
2018-11-27T06:38:16.037Z,8.00
2018-11-27T06:39:16.026Z,8.00
2018-11-27T06:40:16.027Z,8.00
2018-11-27T06:41:16.049Z,12.00
2018-11-27T06:42:16.047Z,12.00
2018-11-27T06:43:15.985Z,16.00
2018-11-27T06:44:15.979Z,20.00
2018-11-27T06:45:15.965Z,20.00
2018-11-27T06:46:15.992Z,24.00
2018-11-27T06:47:15.942Z,28.00
2018-11-27T06:48:15.949Z,36.00
2018-11-27T06:49:15.927Z,36.00
2018-11-27T06:50:15.920Z,44.00
2018-11-27T06:51:15.937Z,48.00
2018-11-27T06:52:15.902Z,56.00
2018-11-27T06:53:15.879Z,60.00
2018-11-27T06:54:15.871Z,68.00
2018-11-27T06:55:15.869Z,76.00
2018-11-27T06:56:15.844Z,88.00
2018-11-27T06:57:15.877Z,100.00
2018-11-27T06:58:15.830Z,112.00
2018-11-27T06:59:15.813Z,120.00
2018-11-27T07:00:15.804Z,132.00
2018-11-27T07:01:15.840Z,148.00
2018-11-27T07:02:15.789Z,160.00
2018-11-27T07:03:15.794Z,176.00
2018-11-27T07:04:15.759Z,188.00
2018-11-27T07:05:15.750Z,204.00
2018-11-27T07:06:15.743Z,216.00
2018-11-27T07:07:15.756Z,232.00
2018-11-27T07:08:15.747Z,252.00
2018-11-27T07:09:15.710Z,272.00
2018-11-27T07:10:15.702Z,292.00
2018-11-27T07:11:15.683Z,324.00
2018-11-27T07:12:15.674Z,348.00
2018-11-27T07:13:15.691Z,380.00
2018-11-27T07:14:15.701Z,412.00
2018-11-27T07:15:15.671Z,444.00
2018-11-27T07:16:15.634Z,484.00
2018-11-27T07:17:15.620Z,532.00
2018-11-27T07:18:15.609Z,576.00
2018-11-27T07:19:15.644Z,636.00
2018-11-27T07:20:15.588Z,692.00
2018-11-27T07:21:15.585Z,744.00
2018-11-27T07:22:15.581Z,796.00
2018-11-27T07:23:15.565Z,848.00
2018-11-27T07:24:15.569Z,900.00
2018-11-27T07:25:15.563Z,948.00
2018-11-27T07:26:15.529Z,1000.00
2018-11-27T07:27:15.512Z,1048.00
2018-11-27T07:28:15.506Z,1112.00
2018-11-27T07:29:15.495Z,1180.00
2018-11-27T07:30:15.514Z,1252.00
2018-11-27T07:31:15.470Z,1308.00
2018-11-27T07:32:15.470Z,1364.00
2018-11-27T07:33:15.484Z,1412.00
2018-11-27T07:34:15.440Z,1464.00
2018-11-27T07:35:15.476Z,1516.00
2018-11-27T07:36:15.417Z,1564.00
2018-11-27T07:37:15.423Z,1600.00
2018-11-27T07:38:15.411Z,1624.00
2018-11-27T07:39:15.415Z,1652.00
2018-11-27T07:40:15.377Z,1700.00
2018-11-27T07:41:15.405Z,1756.00
2018-11-27T07:42:15.363Z,1804.00
2018-11-27T07:43:15.400Z,1828.00
2018-11-27T07:44:15.331Z,1840.00
2018-11-27T07:45:15.319Z,1868.00
2018-11-27T07:46:15.342Z,1928.00
2018-11-27T07:47:15.305Z,2012.00
2018-11-27T07:48:15.295Z,2096.00
2018-11-27T07:49:15.317Z,2184.00
2018-11-27T07:50:15.314Z,2272.00
2018-11-27T07:51:15.294Z,2372.00
2018-11-27T07:52:15.245Z,2492.00
2018-11-27T07:53:15.233Z,2632.00
2018-11-27T07:54:15.245Z,2780.00
2018-11-27T07:55:15.233Z,2908.00
2018-11-27T07:56:15.244Z,3032.00
2018-11-27T07:57:15.208Z,3176.00
2018-11-27T07:58:15.179Z,3316.00
2018-11-27T07:59:15.169Z,3436.00
2018-11-27T08:00:15.164Z,3532.00
2018-11-27T08:01:15.186Z,3596.00
2018-11-27T08:02:15.150Z,3648.00
2018-11-27T08:03:15.151Z,3724.00
2018-11-27T08:04:15.116Z,3832.00
2018-11-27T08:05:15.106Z,3924.00
2018-11-27T08:06:15.107Z,4044.00
2018-11-27T08:07:15.119Z,4248.00
2018-11-27T08:08:15.076Z,4504.00
2018-11-27T08:09:15.085Z,4736.00
2018-11-27T08:10:15.056Z,4856.00
2018-11-27T08:11:15.042Z,4864.00
2018-11-27T08:12:15.033Z,4808.00
2018-11-27T08:13:15.047Z,4736.00
2018-11-27T08:14:15.012Z,4648.00
2018-11-27T08:15:15.038Z,4632.00
2018-11-27T08:16:15.002Z,4664.00
2018-11-27T08:17:14.998Z,4724.00
2018-11-27T08:18:15.041Z,4740.00
2018-11-27T08:19:14.958Z,4752.00
2018-11-27T08:20:14.969Z,4780.00
2018-11-27T08:21:14.937Z,4868.00
2018-11-27T08:22:14.924Z,5000.00
2018-11-27T08:23:14.965Z,5232.00
2018-11-27T08:24:14.905Z,5516.00
2018-11-27T08:25:14.893Z,5632.00
2018-11-27T08:26:14.888Z,5548.00
2018-11-27T08:27:14.884Z,5408.00
2018-11-27T08:28:14.932Z,5296.00
2018-11-27T08:29:14.857Z,5220.00
2018-11-27T08:30:14.843Z,5192.00
2018-11-27T08:31:14.862Z,5172.00
2018-11-27T08:32:14.835Z,5196.00
2018-11-27T08:33:14.844Z,5252.00
2018-11-27T08:34:14.829Z,5264.00
2018-11-27T08:35:14.788Z,5276.00
2018-11-27T08:36:14.793Z,5340.00
2018-11-27T08:37:14.766Z,5460.00
2018-11-27T08:38:14.758Z,5528.00
2018-11-27T08:39:14.773Z,5560.00
2018-11-27T08:40:14.780Z,5512.00
2018-11-27T08:41:14.738Z,5344.00
2018-11-27T08:42:14.717Z,5164.00
2018-11-27T08:43:14.705Z,4972.00
2018-11-27T08:44:14.724Z,4864.00
2018-11-27T08:45:14.695Z,4832.00
2018-11-27T08:46:14.722Z,4812.00
2018-11-27T08:47:14.660Z,4768.00
2018-11-27T08:48:14.653Z,4720.00
2018-11-27T08:49:14.647Z,4728.00
2018-11-27T08:50:14.670Z,4720.00
2018-11-27T08:51:14.616Z,4764.00
2018-11-27T08:52:14.683Z,4804.00
2018-11-27T08:53:14.597Z,4768.00
2018-11-27T08:54:14.590Z,4668.00
2018-11-27T08:55:14.574Z,4612.00
2018-11-27T08:56:14.589Z,4576.00
2018-11-27T08:57:14.553Z,4568.00
2018-11-27T08:58:14.579Z,4544.00
2018-11-27T08:59:14.537Z,4516.00
2018-11-27T09:00:14.520Z,4484.00
2018-11-27T09:01:14.538Z,4392.00
2018-11-27T09:02:14.497Z,4240.00
2018-11-27T09:03:14.486Z,4068.00
2018-11-27T09:04:14.496Z,3956.00
2018-11-27T09:05:14.520Z,3888.00
2018-11-27T09:06:14.479Z,3856.00
2018-11-27T09:07:14.442Z,3844.00
2018-11-27T09:08:14.432Z,3840.00
2018-11-27T09:09:14.421Z,3852.00
2018-11-27T09:10:14.437Z,3844.00
2018-11-27T09:11:14.455Z,3832.00
2018-11-27T09:12:14.394Z,3808.00
2018-11-27T09:13:14.687Z,3772.00
2018-11-27T09:14:14.372Z,3712.00
2018-11-27T09:15:14.364Z,3676.00
2018-11-27T09:16:14.347Z,3660.00
2018-11-27T09:17:14.379Z,3656.00
2018-11-27T09:18:14.328Z,3648.00
2018-11-27T09:19:14.317Z,3636.00
2018-11-27T09:20:14.307Z,3636.00
2018-11-27T09:21:14.304Z,3632.00
2018-11-27T09:22:14.291Z,3628.00
2018-11-27T09:23:14.335Z,3620.00
2018-11-27T09:24:14.262Z,3588.00
2018-11-27T09:25:14.255Z,3560.00
2018-11-27T09:26:14.245Z,3540.00
2018-11-27T09:27:14.235Z,3536.00
2018-11-27T09:28:14.250Z,3536.00
2018-11-27T09:29:14.240Z,3532.00
2018-11-27T09:30:14.198Z,3544.00
2018-11-27T09:31:14.189Z,3568.00
2018-11-27T09:32:14.178Z,3612.00
2018-11-27T09:33:14.199Z,3676.00
2018-11-27T09:34:14.157Z,3760.00
2018-11-27T09:35:14.166Z,3848.00
2018-11-27T09:36:14.135Z,3992.00
2018-11-27T09:37:14.127Z,4120.00
2018-11-27T09:38:14.118Z,4244.00
2018-11-27T09:39:14.133Z,4420.00
2018-11-27T09:40:14.096Z,4612.00
2018-11-27T09:41:14.148Z,4700.00
2018-11-27T09:42:14.073Z,4676.00
2018-11-27T09:43:14.074Z,4568.00
2018-11-27T09:44:14.054Z,4508.00
2018-11-27T09:45:14.071Z,4536.00
2018-11-27T09:46:14.031Z,4576.00
2018-11-27T09:47:14.032Z,4672.00
2018-11-27T09:48:14.010Z,4856.00
2018-11-27T09:49:14.016Z,5160.00
2018-11-27T09:50:14.016Z,5468.00
2018-11-27T09:51:13.978Z,5660.00
2018-11-27T09:52:13.967Z,5972.00
2018-11-27T09:53:13.984Z,6108.00
2018-11-27T09:54:13.945Z,5928.00
2018-11-27T09:55:13.971Z,6376.00
2018-11-27T09:56:13.925Z,7152.00
2018-11-27T09:57:13.919Z,7636.00
2018-11-27T09:58:13.907Z,7836.00
2018-11-27T09:59:13.966Z,7828.00
2018-11-27T10:00:13.885Z,8080.00
2018-11-27T10:01:13.900Z,8768.00
2018-11-27T10:02:13.862Z,9232.00
2018-11-27T10:03:13.856Z,9384.00
2018-11-27T10:04:13.839Z,9328.00
2018-11-27T10:05:13.868Z,9092.00
2018-11-27T10:06:13.841Z,8896.00
2018-11-27T10:07:13.812Z,8856.00
2018-11-27T10:08:13.795Z,8920.00
2018-11-27T10:09:13.783Z,8872.00
2018-11-27T10:10:13.775Z,8936.00
2018-11-27T10:11:13.833Z,8996.00
2018-11-27T10:12:13.756Z,9028.00
2018-11-27T10:13:13.746Z,8952.00
2018-11-27T10:14:13.765Z,8836.00
2018-11-27T10:15:13.721Z,8896.00
2018-11-27T10:16:13.710Z,9120.00
2018-11-27T10:17:13.777Z,9348.00
2018-11-27T10:18:13.691Z,9512.00
2018-11-27T10:19:13.679Z,9520.00
2018-11-27T10:20:13.671Z,9516.00
2018-11-27T10:21:13.659Z,9492.00
2018-11-27T10:22:13.642Z,9504.00
2018-11-27T10:23:13.736Z,9600.00
2018-11-27T10:24:13.622Z,9608.00
2018-11-27T10:25:13.611Z,9464.00
2018-11-27T10:26:13.603Z,9316.00
2018-11-27T10:27:13.591Z,9236.00
2018-11-27T10:28:13.609Z,9192.00
2018-11-27T10:29:13.599Z,9232.00
2018-11-27T10:30:13.558Z,9288.00
2018-11-27T10:31:13.550Z,9352.00
2018-11-27T10:32:13.541Z,9436.00
2018-11-27T10:33:13.545Z,9480.00
2018-11-27T10:34:13.553Z,9412.00
2018-11-27T10:35:13.508Z,9316.00
2018-11-27T10:36:13.530Z,9200.00
2018-11-27T10:37:13.491Z,9100.00
2018-11-27T10:38:13.472Z,9004.00
2018-11-27T10:39:13.486Z,8896.00
2018-11-27T10:40:13.449Z,8784.00
2018-11-27T10:41:13.439Z,8704.00
2018-11-27T10:42:13.836Z,8600.00
2018-11-27T10:43:13.415Z,8452.00
2018-11-27T10:44:13.433Z,8300.00
2018-11-27T10:45:13.403Z,8180.00
2018-11-27T10:46:13.388Z,8192.00
2018-11-27T10:47:13.375Z,8264.00
2018-11-27T10:48:13.393Z,8288.00
2018-11-27T10:49:13.398Z,8236.00
2018-11-27T10:50:13.348Z,8204.00
2018-11-27T10:51:13.346Z,8244.00
2018-11-27T10:52:13.318Z,8324.00
2018-11-27T10:53:13.314Z,8400.00
2018-11-27T10:54:13.421Z,8436.00
2018-11-27T10:55:13.287Z,8476.00
2018-11-27T10:56:13.285Z,8540.00
2018-11-27T10:57:13.265Z,8632.00
2018-11-27T10:58:13.263Z,8728.00
2018-11-27T10:59:13.272Z,8808.00
2018-11-27T11:00:13.257Z,8820.00
2018-11-27T11:01:13.221Z,8796.00
2018-11-27T11:02:13.213Z,8772.00
2018-11-27T11:03:13.206Z,8732.00
2018-11-27T11:04:13.226Z,8688.00
2018-11-27T11:05:13.185Z,8644.00
2018-11-27T11:06:13.169Z,8608.00
2018-11-27T11:07:13.198Z,8584.00
2018-11-27T11:08:13.148Z,8636.00
2018-11-27T11:09:13.139Z,8744.00
2018-11-27T11:10:13.155Z,8860.00
2018-11-27T11:11:13.112Z,8928.00
2018-11-27T11:12:13.116Z,8936.00
2018-11-27T11:13:13.124Z,8992.00
2018-11-27T11:14:13.084Z,9096.00
2018-11-27T11:15:13.101Z,9212.00
2018-11-27T11:16:13.069Z,9280.00
2018-11-27T11:17:13.052Z,9336.00
2018-11-27T11:18:13.054Z,9272.00
2018-11-27T11:19:18.255Z,9092.00
2018-11-27T11:20:14.094Z,8860.00
2018-11-27T11:21:13.011Z,8636.00
2018-11-27T11:22:13.015Z,8488.00
2018-11-27T11:23:12.985Z,8408.00
2018-11-27T11:24:12.973Z,8352.00
2018-11-27T11:25:12.999Z,8280.00
2018-11-27T11:26:13.036Z,8268.00
2018-11-27T11:27:12.954Z,8316.00
2018-11-27T11:28:12.936Z,8356.00
2018-11-27T11:29:12.920Z,8360.00
2018-11-27T11:30:12.914Z,8336.00
2018-11-27T11:31:12.937Z,8292.00
2018-11-27T11:32:12.885Z,8300.00
2018-11-27T11:33:12.937Z,8372.00
2018-11-27T11:34:12.870Z,8488.00
2018-11-27T11:35:12.857Z,8616.00
2018-11-27T11:36:12.879Z,8696.00
2018-11-27T11:37:12.836Z,8752.00
2018-11-27T11:38:12.824Z,8848.00
2018-11-27T11:39:12.828Z,9012.00
2018-11-27T11:40:12.798Z,9252.00
2018-11-27T11:41:12.798Z,9524.00
2018-11-27T11:42:12.807Z,9660.00
2018-11-27T11:43:12.780Z,9796.00
2018-11-27T11:44:12.764Z,10036.00
2018-11-27T11:45:12.828Z,10260.00
2018-11-27T11:46:12.741Z,10328.00
2018-11-27T11:47:12.727Z,10188.00
2018-11-27T11:48:12.755Z,9980.00
2018-11-27T11:49:12.723Z,9760.00
2018-11-27T11:50:12.710Z,9428.00
2018-11-27T11:51:12.685Z,8988.00
2018-11-27T11:52:12.801Z,8624.00
2018-11-27T11:53:12.686Z,8464.00
2018-11-27T11:54:12.648Z,8372.00
2018-11-27T11:55:12.648Z,8244.00
2018-11-27T11:56:12.645Z,8084.00
2018-11-27T11:57:12.621Z,7956.00
2018-11-27T11:58:12.681Z,7808.00
2018-11-27T11:59:12.611Z,7632.00
2018-11-27T12:00:12.584Z,7516.00
2018-11-27T12:01:12.575Z,7464.00
2018-11-27T12:02:12.568Z,7444.00
2018-11-27T12:03:12.596Z,7380.00
2018-11-27T12:04:12.550Z,7312.00
2018-11-27T12:05:12.544Z,7300.00
2018-11-27T12:06:12.623Z,7308.00
2018-11-27T12:07:12.517Z,7276.00
2018-11-27T12:08:12.497Z,7124.00
2018-11-27T12:09:12.534Z,6884.00
2018-11-27T12:10:12.482Z,6580.00
2018-11-27T12:11:12.518Z,6288.00
2018-11-27T12:12:12.461Z,6036.00
2018-11-27T12:13:12.444Z,5860.00
2018-11-27T12:14:12.486Z,5736.00
2018-11-27T12:15:12.445Z,5628.00
2018-11-27T12:16:12.417Z,5532.00
2018-11-27T12:17:12.435Z,5464.00
2018-11-27T12:18:12.400Z,5416.00
2018-11-27T12:19:12.420Z,5360.00
2018-11-27T12:20:12.406Z,5296.00
2018-11-27T12:21:12.384Z,5256.00
2018-11-27T12:22:12.349Z,5272.00
2018-11-27T12:23:12.359Z,5376.00
2018-11-27T12:24:12.323Z,5512.00
2018-11-27T12:25:12.319Z,5652.00
2018-11-27T12:26:12.378Z,5804.00
2018-11-27T12:27:12.298Z,5968.00
2018-11-27T12:28:14.624Z,6140.00
2018-11-27T12:29:12.311Z,6296.00
2018-11-27T12:30:12.309Z,6388.00
2018-11-27T12:31:12.276Z,6452.00
2018-11-27T12:32:12.243Z,6532.00
2018-11-27T12:33:12.298Z,6620.00
2018-11-27T12:34:12.223Z,6508.00
2018-11-27T12:35:12.211Z,6468.00
2018-11-27T12:36:12.225Z,6484.00
2018-11-27T12:37:12.240Z,6624.00
2018-11-27T12:38:12.180Z,6908.00
2018-11-27T12:39:12.164Z,7296.00
2018-11-27T12:40:12.291Z,7596.00
2018-11-27T12:41:12.219Z,7756.00
2018-11-27T12:42:12.160Z,7588.00
2018-11-27T12:43:12.125Z,7608.00